Time,TemperatureF,DewpointF,PressureIn,WindDirection,WindDirectionDegrees,WindSpeedMPH,WindSpeedGustMPH,Humidity,HourlyPrecipIn,Conditions,Clouds,dailyrainin,SoftwareType,DateUTC
2013-10-21 00:03:00,38.0,33.3,29.67,WNW,293,1.4,3.5,83,0.00,OVC,SKC,0.00,WeatherDisplay:10.37,2013-10-21 05:03:00,
2013-10-21 00:08:00,38.0,33.3,29.67,WNW,293,2.4,4.0,83,0.00,OVC,SKC,0.00,WeatherDisplay:10.37,2013-10-21 05:08:00,
2013-10-21 00:13:00,37.9,33.2,29.68,WNW,293,2.3,4.0,83,0.00,OVC,SKC,0.00,WeatherDisplay:10.37,2013-10-21 05:13:00,
2013-10-21 00:18:00,37.9,33.2,29.68,WNW,293,2.7,4.6,83,0.00,OVC,SKC,0.00,WeatherDisplay:10.37,2013-10-21 05:18:00,
2013-10-21 00:23:00,37.9,33.5,29.68,WNW,293,2.0,3.5,84,0.00,OVC,SKC,0.00,WeatherDisplay:10.37,2013-10-21 05:23:00,
2013-10-21 00:28:00,38.0,33.6,29.68,WNW,293,2.3,5.0,84,0.00,OVC,SKC,0.00,WeatherDisplay:10.37,2013-10-21 05:28:00,
2013-10-21 00:33:00,38.0,33.6,29.68,WNW,293,3.7,5.0,84,0.00,OVC,SKC,0.00,WeatherDisplay:10.37,2013-10-21 05:33:00,
2013-10-21 00:38:00,38.0,33.6,29.68,WNW,293,2.7,4.6,84,0.00,OVC,SKC,0.00,WeatherDisplay:10.37,2013-10-21 05:38:00,
2013-10-21 00:43:00,38.0,33.6,29.68,WNW,293,2.9,4.6,84,0.00,-DZ,SKC,0.00,WeatherDisplay:10.37,2013-10-21 05:43:00,
2013-10-21 00:48:00,38.0,33.9,29.68,WNW,293,2.3,4.0,85,0.00,-DZ,SKC,0.00,WeatherDisplay:10.37,2013-10-21 05:48:00,
2013-10-21 00:53:00,38.0,33.9,29.68,WNW,293,2.8,4.6,85,0.00,-DZ,SKC,0.00,WeatherDisplay:10.37,2013-10-21 05:53:00,
2013-10-21 00:58:00,38.0,33.9,29.68,WNW,288,3.2,5.0,85,0.00,-DZ,SKC,0.00,WeatherDisplay:10.37,2013-10-21 05:58:00,
2013-10-21 01:03:00,38.1,34.0,29.68,WNW,288,2.7,4.0,85,0.00,OVC,SKC,0.00,WeatherDisplay:10.37,2013-10-21 06:03:00,
2013-10-21 01:08:00,38.1,34.0,29.68,WNW,288,3.7,6.0,85,0.00,OVC,SKC,0.00,WeatherDisplay:10.37,2013-10-21 06:08:00,
2013-10-21 01:13:00,38.1,34.0,29.69,WNW,288,3.6,3.6,85,0.00,OVC,SKC,0.00,WeatherDisplay:10.37,2013-10-21 06:13:00,
2013-10-21 01:18:00,38.1,34.0,29.69,WNW,288,3.6,3.6,85,0.00,OVC,SKC,0.00,WeatherDisplay:10.37,2013-10-21 06:18:00,
2013-10-21 01:23:00,38.1,34.0,29.69,WNW,288,3.6,3.6,85,0.00,-RA,SKC,0.00,WeatherDisplay:10.37,2013-10-21 06:23:00,
2013-10-21 01:28:00,38.1,34.0,29.69,WNW,288,3.6,3.6,85,0.00,-RA,SKC,0.00,WeatherDisplay:10.37,2013-10-21 06:28:00,
2013-10-21 01:33:00,38.1,34.0,29.69,WNW,288,3.6,3.6,85,0.00,-RA,SKC,0.00,WeatherDisplay:10.37,2013-10-21 06:33:00,
2013-10-21 01:38:00,38.1,34.0,29.69,WNW,288,3.6,3.6,85,0.00,-RA,SKC,0.00,WeatherDisplay:10.37,2013-10-21 06:38:00,
2013-10-21 01:43:00,38.1,34.0,29.69,WNW,288,3.6,3.6,85,0.00,OVC,SKC,0.00,WeatherDisplay:10.37,2013-10-21 06:43:00,
2013-10-21 01:48:00,38.1,34.0,29.69,WNW,288,3.6,3.6,85,0.00,OVC,SKC,0.00,WeatherDisplay:10.37,2013-10-21 06:48:00,
2013-10-21 01:53:00,38.1,34.0,29.69,WNW,288,3.6,3.6,85,0.00,OVC,SKC,0.00,WeatherDisplay:10.37,2013-10-21 06:53:00,
2013-10-21 01:58:00,38.1,34.0,29.69,WNW,288,3.6,3.6,85,0.00,OVC,SKC,0.00,WeatherDisplay:10.37,2013-10-21 06:58:00,
2013-10-21 02:03:00,38.1,34.0,29.69,WNW,288,3.6,3.6,85,0.00,OVC,SKC,0.00,WeatherDisplay:10.37,2013-10-21 07:03:00,
2013-10-21 02:08:00,38.1,34.0,29.69,WNW,288,3.6,3.6,85,0.00,OVC,SKC,0.00,WeatherDisplay:10.37,2013-10-21 07:08:00,
2013-10-21 02:13:00,38.1,34.0,29.69,WNW,288,3.6,3.6,85,0.00,OVC,SKC,0.00,WeatherDisplay:10.37,2013-10-21 07:13:00,
2013-10-21 02:18:00,38.1,34.0,29.69,WNW,288,3.6,3.6,85,0.00,OVC,SKC,0.00,WeatherDisplay:10.37,2013-10-21 07:18:00,
2013-10-21 02:23:00,38.1,34.0,29.69,WNW,288,3.6,3.6,85,0.00,SCT,SKC,0.00,WeatherDisplay:10.37,2013-10-21 07:23:00,
2013-10-21 02:28:00,38.1,34.0,29.69,WNW,288,3.6,3.6,85,0.00,SCT,SKC,0.00,WeatherDisplay:10.37,2013-10-21 07:28:00,
2013-10-21 02:33:00,38.1,34.0,29.69,WNW,288,3.6,3.6,85,0.00,SCT,SKC,0.00,WeatherDisplay:10.37,2013-10-21 07:33:00,
2013-10-21 02:38:00,33.3,27.2,29.71,WNW,288,3.2,8.1,78,0.00,SCT,SKC,0.00,WeatherDisplay:10.37,2013-10-21 07:38:00,
2013-10-21 02:43:00,33.1,27.0,29.71,WNW,288,3.3,5.0,78,0.00,CLR,SKC,0.00,WeatherDisplay:10.37,2013-10-21 07:43:00,
2013-10-21 02:48:00,33.0,26.9,29.71,WNW,288,3.1,5.0,78,0.00,CLR,SKC,0.00,WeatherDisplay:10.37,2013-10-21 07:48:00,
2013-10-21 02:53:00,33.0,26.9,29.71,WNW,288,3.0,4.6,78,0.00,CLR,SKC,0.00,WeatherDisplay:10.37,2013-10-21 07:53:00,
2013-10-21 02:58:00,33.2,27.4,29.71,WNW,288,3.3,5.8,79,0.00,CLR,SKC,0.00,WeatherDisplay:10.37,2013-10-21 07:58:00,
2013-10-21 03:03:00,33.3,27.5,29.71,WNW,288,3.1,3.5,79,0.00,CLR,SKC,0.00,WeatherDisplay:10.37,2013-10-21 08:03:00,
2013-10-21 03:08:00,33.3,27.5,29.71,WNW,288,3.1,3.5,79,0.00,CLR,SKC,0.00,WeatherDisplay:10.37,2013-10-21 08:08:00,
2013-10-21 03:13:00,33.3,27.5,29.71,WNW,288,3.1,3.5,79,0.00,CLR,SKC,0.00,WeatherDisplay:10.37,2013-10-21 08:13:00,
2013-10-21 03:18:00,33.3,27.5,29.71,WNW,288,3.1,3.5,79,0.00,CLR,SKC,0.00,WeatherDisplay:10.37,2013-10-21 08:18:00,
2013-10-21 03:23:00,33.3,27.5,29.71,WNW,288,3.1,3.5,79,0.00,BKN,SKC,0.00,WeatherDisplay:10.37,2013-10-21 08:23:00,
2013-10-21 03:28:00,33.3,27.5,29.71,WNW,288,3.1,3.5,79,0.00,BKN,SKC,0.00,WeatherDisplay:10.37,2013-10-21 08:28:00,
2013-10-21 03:33:00,33.3,27.5,29.71,WNW,288,3.1,3.5,79,0.00,BKN,SKC,0.00,WeatherDisplay:10.37,2013-10-21 08:33:00,
2013-10-21 03:38:00,33.3,27.5,29.71,WNW,288,3.1,3.5,79,0.00,BKN,SKC,0.00,WeatherDisplay:10.37,2013-10-21 08:38:00,
2013-10-21 03:43:00,34.5,27.4,29.72,WNW,288,3.6,5.0,75,0.00,OVC,SKC,0.00,WeatherDisplay:10.37,2013-10-21 08:43:00,
2013-10-21 03:48:00,34.5,27.4,29.72,WNW,288,2.8,5.8,75,0.00,OVC,SKC,0.00,WeatherDisplay:10.37,2013-10-21 08:48:00,
2013-10-21 03:53:00,34.5,27.4,29.72,WNW,288,2.5,4.6,75,0.00,OVC,SKC,0.00,WeatherDisplay:10.37,2013-10-21 08:53:00,
2013-10-21 03:58:00,34.5,27.1,29.72,WNW,288,2.5,4.6,74,0.00,OVC,SKC,0.00,WeatherDisplay:10.37,2013-10-21 08:58:00,
2013-10-21 04:03:00,34.4,27.0,29.72,WNW,288,3.2,5.0,74,0.00,OVC,SKC,0.00,WeatherDisplay:10.37,2013-10-21 09:03:00,
2013-10-21 04:08:00,34.4,27.0,29.73,WNW,288,2.2,5.0,74,0.00,OVC,SKC,0.00,WeatherDisplay:10.37,2013-10-21 09:08:00,
2013-10-21 04:13:00,34.4,27.3,29.73,WNW,288,2.7,4.0,75,0.00,OVC,SKC,0.00,WeatherDisplay:10.37,2013-10-21 09:13:00,
2013-10-21 04:18:00,34.4,27.0,29.73,WNW,288,3.0,4.6,74,0.00,OVC,SKC,0.00,WeatherDisplay:10.37,2013-10-21 09:18:00,
2013-10-21 04:23:00,34.3,26.9,29.73,WNW,288,2.5,3.5,74,0.00,OVC,SKC,0.00,WeatherDisplay:10.37,2013-10-21 09:23:00,
2013-10-21 04:28:00,34.3,26.9,29.73,WNW,288,2.2,5.0,74,0.00,OVC,SKC,0.00,WeatherDisplay:10.37,2013-10-21 09:28:00,
2013-10-21 04:33:00,34.3,26.5,29.73,WNW,288,2.7,4.0,73,0.00,OVC,SKC,0.00,WeatherDisplay:10.37,2013-10-21 09:33:00,
2013-10-21 04:39:00,34.3,26.5,29.73,WNW,288,2.5,4.0,73,0.00,OVC,SKC,0.00,WeatherDisplay:10.37,2013-10-21 09:39:00,
2013-10-21 04:44:00,34.3,26.2,29.73,WNW,288,2.5,5.0,72,0.00,BKN,SKC,0.00,WeatherDisplay:10.37,2013-10-21 09:44:00,
2013-10-21 04:49:00,34.3,26.2,29.73,WNW,288,2.3,3.5,72,0.00,BKN,SKC,0.00,WeatherDisplay:10.37,2013-10-21 09:49:00,
2013-10-21 04:54:00,34.3,26.2,29.73,WNW,288,2.3,3.5,72,0.00,BKN,SKC,0.00,WeatherDisplay:10.37,2013-10-21 09:54:00,
2013-10-21 04:59:00,34.3,26.2,29.73,WNW,288,2.3,3.5,72,0.00,BKN,SKC,0.00,WeatherDisplay:10.37,2013-10-21 09:59:00,
2013-10-21 05:04:00,34.3,26.2,29.73,WNW,288,2.3,3.5,72,0.00,SCT,SKC,0.00,WeatherDisplay:10.37,2013-10-21 10:04:00,
2013-10-21 05:09:00,34.3,26.2,29.73,WNW,288,2.3,3.5,72,0.00,SCT,SKC,0.00,WeatherDisplay:10.37,2013-10-21 10:09:00,
2013-10-21 05:14:00,34.3,26.2,29.73,WNW,288,2.3,3.5,72,0.00,SCT,SKC,0.00,WeatherDisplay:10.37,2013-10-21 10:14:00,
2013-10-21 05:19:00,34.1,25.7,29.72,WNW,288,3.4,5.0,71,0.00,SCT,SKC,0.00,WeatherDisplay:10.37,2013-10-21 10:19:00,
2013-10-21 05:24:00,34.1,25.7,29.73,WNW,288,2.5,5.0,71,0.00,BKN,SKC,0.00,WeatherDisplay:10.37,2013-10-21 10:24:00,
2013-10-21 05:29:00,34.1,25.7,29.72,WNW,288,3.8,5.0,71,0.00,BKN,SKC,0.00,WeatherDisplay:10.37,2013-10-21 10:29:00,
2013-10-21 05:34:00,34.0,25.2,29.72,WNW,288,4.5,7.0,70,0.00,BKN,SKC,0.00,WeatherDisplay:10.37,2013-10-21 10:34:00,
2013-10-21 05:39:00,34.0,24.9,29.73,WNW,288,2.6,5.0,69,0.00,BKN,SKC,0.00,WeatherDisplay:10.37,2013-10-21 10:39:00,
2013-10-21 05:44:00,33.9,24.8,29.73,WNW,288,4.4,6.0,69,0.00,OVC,SKC,0.00,WeatherDisplay:10.37,2013-10-21 10:44:00,
2013-10-21 05:49:00,34.2,25.8,29.72,WNW,288,2.2,2.3,71,0.00,OVC,SKC,0.00,WeatherDisplay:10.37,2013-10-21 10:49:00,
2013-10-21 05:54:00,34.2,25.8,29.72,WNW,288,2.2,2.3,71,0.00,OVC,SKC,0.00,WeatherDisplay:10.37,2013-10-21 10:54:00,
2013-10-21 05:59:00,34.2,25.8,29.72,WNW,288,2.2,2.3,71,0.00,OVC,SKC,0.00,WeatherDisplay:10.37,2013-10-21 10:59:00,
2013-10-21 06:04:00,33.9,24.8,29.73,WNW,298,2.0,3.5,69,0.00,OVC,SKC,0.00,WeatherDisplay:10.37,2013-10-21 11:04:00,
2013-10-21 06:09:00,33.5,24.8,29.73,WNW,298,2.4,4.0,70,0.00,OVC,SKC,0.00,WeatherDisplay:10.37,2013-10-21 11:09:00,
2013-10-21 06:14:00,33.0,24.3,29.73,WNW,298,2.7,4.0,70,0.00,OVC,SKC,0.00,WeatherDisplay:10.37,2013-10-21 11:14:00,
2013-10-21 06:19:00,34.2,25.8,29.72,WNW,288,2.2,2.3,71,0.00,OVC,SKC,0.00,WeatherDisplay:10.37,2013-10-21 11:19:00,
2013-10-21 06:24:00,34.2,25.8,29.72,WNW,288,2.2,2.3,71,0.00,SCT,SKC,0.00,WeatherDisplay:10.37,2013-10-21 11:24:00,
2013-10-21 06:29:00,31.6,24.6,29.74,WNW,298,2.9,5.0,75,0.00,SCT,SKC,0.00,WeatherDisplay:10.37,2013-10-21 11:29:00,
2013-10-21 06:34:00,34.2,25.8,29.72,WNW,288,2.2,2.3,71,0.00,SCT,SKC,0.00,WeatherDisplay:10.37,2013-10-21 11:34:00,
2013-10-21 06:39:00,34.2,25.8,29.72,WNW,288,2.2,2.3,71,0.00,SCT,SKC,0.00,WeatherDisplay:10.37,2013-10-21 11:39:00,
2013-10-21 06:44:00,30.7,24.3,29.74,WNW,298,2.3,3.5,77,0.00,CLR,SKC,0.00,WeatherDisplay:10.37,2013-10-21 11:44:00,
2013-10-21 06:49:00,30.5,24.5,29.74,WNW,298,2.9,4.0,78,0.00,CLR,SKC,0.00,WeatherDisplay:10.37,2013-10-21 11:49:00,
2013-10-21 06:54:00,30.5,24.8,29.74,WNW,298,2.3,4.0,79,0.00,CLR,SKC,0.00,WeatherDisplay:10.37,2013-10-21 11:54:00,
2013-10-21 06:59:00,30.5,24.8,29.74,WNW,298,2.1,4.0,79,0.00,CLR,SKC,0.00,WeatherDisplay:10.37,2013-10-21 11:59:00,
2013-10-21 07:04:00,30.5,24.8,29.74,WNW,298,2.3,4.0,79,0.00,BKN,SKC,0.00,WeatherDisplay:10.37,2013-10-21 12:04:00,
2013-10-21 07:09:00,30.3,24.6,29.74,WNW,298,2.4,4.0,79,0.00,BKN,SKC,0.00,WeatherDisplay:10.37,2013-10-21 12:09:00,
2013-10-21 07:14:00,30.2,24.8,29.74,WNW,298,2.5,4.0,80,0.00,BKN,SKC,0.00,WeatherDisplay:10.37,2013-10-21 12:14:00,
2013-10-21 07:19:00,34.2,25.8,29.72,WNW,288,2.2,2.3,71,0.00,BKN,SKC,0.00,WeatherDisplay:10.37,2013-10-21 12:19:00,
2013-10-21 07:24:00,34.2,25.8,29.72,WNW,288,2.2,2.3,71,0.00,SCT,SKC,0.00,WeatherDisplay:10.37,2013-10-21 12:24:00,
2013-10-21 07:29:00,29.7,24.6,29.74,WNW,298,2.7,4.0,81,0.00,SCT,SKC,0.00,WeatherDisplay:10.37,2013-10-21 12:29:00,
2013-10-21 07:34:00,29.6,24.5,29.75,WNW,298,2.1,4.0,81,0.00,SCT,SKC,0.00,WeatherDisplay:10.37,2013-10-21 12:34:00,
2013-10-21 07:39:00,29.6,24.5,29.74,WNW,298,2.6,4.0,81,0.00,SCT,SKC,0.00,WeatherDisplay:10.37,2013-10-21 12:39:00,
2013-10-21 07:44:00,29.6,24.8,29.75,WNW,298,1.6,5.0,82,0.00,CLR,SKC,0.00,WeatherDisplay:10.37,2013-10-21 12:44:00,
2013-10-21 07:49:00,29.6,24.8,29.75,WNW,298,2.4,5.0,82,0.00,CLR,SKC,0.00,WeatherDisplay:10.37,2013-10-21 12:49:00,
2013-10-21 07:54:00,29.6,24.8,29.75,WNW,298,2.2,3.5,82,0.00,CLR,SKC,0.00,WeatherDisplay:10.37,2013-10-21 12:54:00,
2013-10-21 07:59:00,34.2,25.8,29.72,WNW,288,2.2,2.3,71,0.00,CLR,SKC,0.00,WeatherDisplay:10.37,2013-10-21 12:59:00,
2013-10-21 08:04:00,29.8,25.0,29.75,WNW,298,2.5,4.0,82,0.00,CLR,SKC,0.00,WeatherDisplay:10.37,2013-10-21 13:04:00,
2013-10-21 08:09:00,29.9,25.1,29.75,WNW,298,2.7,4.0,82,0.00,CLR,SKC,0.00,WeatherDisplay:10.37,2013-10-21 13:09:00,
2013-10-21 08:14:00,30.2,25.4,29.75,WNW,298,1.9,3.5,82,0.00,CLR,SKC,0.00,WeatherDisplay:10.37,2013-10-21 13:14:00,
2013-10-21 08:19:00,30.4,25.6,29.76,WNW,298,2.4,4.0,82,0.00,CLR,SKC,0.00,WeatherDisplay:10.37,2013-10-21 13:19:00,
2013-10-21 08:24:00,34.2,25.8,29.72,WNW,288,2.2,2.3,71,0.00,BKN,SKC,0.00,WeatherDisplay:10.37,2013-10-21 13:24:00,
2013-10-21 08:29:00,34.2,25.8,29.72,WNW,288,2.2,2.3,71,0.00,BKN,SKC,0.00,WeatherDisplay:10.37,2013-10-21 13:29:00,
2013-10-21 08:34:00,34.2,25.8,29.72,WNW,288,2.2,2.3,71,0.00,BKN,SKC,0.00,WeatherDisplay:10.37,2013-10-21 13:34:00,
2013-10-21 08:39:00,31.7,26.2,29.76,WNW,298,3.8,6.0,80,0.00,BKN,SKC,0.00,WeatherDisplay:10.37,2013-10-21 13:39:00,
2013-10-21 08:44:00,32.0,26.2,29.76,WNW,298,3.3,5.0,79,0.00,BKN,SKC,0.00,WeatherDisplay:10.37,2013-10-21 13:44:00,
2013-10-21 08:49:00,34.2,25.8,29.72,WNW,288,2.2,2.3,71,0.00,BKN,SKC,0.00,WeatherDisplay:10.37,2013-10-21 13:49:00,
2013-10-21 08:54:00,32.8,27.0,29.76,WNW,298,3.2,5.0,79,0.00,BKN,SKC,0.00,WeatherDisplay:10.37,2013-10-21 13:54:00,
2013-10-21 08:59:00,33.1,27.0,29.76,WNW,298,3.3,5.0,78,0.00,BKN,SKC,0.00,WeatherDisplay:10.37,2013-10-21 13:59:00,
2013-10-21 09:04:00,33.4,27.3,29.76,WNW,298,3.8,5.0,78,0.00,OVC,SKC,0.00,WeatherDisplay:10.37,2013-10-21 14:04:00,
2013-10-21 09:09:00,33.7,27.6,29.77,WNW,298,3.1,5.0,78,0.00,OVC,SKC,0.00,WeatherDisplay:10.37,2013-10-21 14:09:00,
2013-10-21 09:14:00,33.9,27.4,29.77,WNW,298,3.6,6.0,77,0.00,OVC,SKC,0.00,WeatherDisplay:10.37,2013-10-21 14:14:00,
2013-10-21 09:19:00,33.7,27.6,29.77,WNW,298,2.5,2.5,78,0.00,OVC,SKC,0.00,WeatherDisplay:10.37,2013-10-21 14:19:00,
2013-10-21 09:25:00,34.6,27.8,29.76,WNW,298,3.2,4.6,76,0.00,OVC,SKC,0.00,WeatherDisplay:10.37,2013-10-21 14:25:00,
2013-10-21 09:30:00,35.2,28.4,29.77,WNW,298,3.6,4.6,76,0.00,OVC,SKC,0.00,WeatherDisplay:10.37,2013-10-21 14:30:00,
2013-10-21 09:35:00,35.2,28.4,29.77,WNW,298,3.6,3.6,76,0.00,OVC,SKC,0.00,WeatherDisplay:10.37,2013-10-21 14:35:00,
2013-10-21 09:40:00,35.2,28.4,29.77,WNW,298,3.6,3.6,76,0.00,OVC,SKC,0.00,WeatherDisplay:10.37,2013-10-21 14:40:00,
2013-10-21 09:45:00,35.2,28.4,29.77,WNW,298,3.6,3.6,76,0.00,OVC,SKC,0.00,WeatherDisplay:10.37,2013-10-21 14:45:00,
2013-10-21 09:50:00,35.2,28.4,29.77,WNW,298,3.6,3.6,76,0.00,OVC,SKC,0.00,WeatherDisplay:10.37,2013-10-21 14:50:00,
2013-10-21 09:55:00,36.1,27.6,29.76,WNW,298,3.1,4.0,71,0.00,OVC,SKC,0.00,WeatherDisplay:10.37,2013-10-21 14:55:00,
2013-10-21 10:00:00,36.2,28.0,29.76,WNW,298,3.4,4.6,72,0.00,OVC,SKC,0.00,WeatherDisplay:10.37,2013-10-21 15:00:00,
2013-10-21 10:05:00,36.1,27.6,29.76,WNW,298,4.4,4.4,71,0.00,OVC,SKC,0.00,WeatherDisplay:10.37,2013-10-21 15:05:00,
2013-10-21 10:10:00,36.8,27.6,29.76,WNW,298,4.9,6.9,69,0.00,OVC,SKC,0.00,WeatherDisplay:10.37,2013-10-21 15:10:00,
2013-10-21 10:15:00,37.0,27.8,29.76,WNW,298,4.2,6.9,69,0.00,OVC,SKC,0.00,WeatherDisplay:10.37,2013-10-21 15:15:00,
2013-10-21 10:20:00,37.2,27.2,29.76,WNW,298,4.7,8.1,67,0.00,OVC,SKC,0.00,WeatherDisplay:10.37,2013-10-21 15:20:00,
2013-10-21 10:25:00,37.4,27.4,29.76,WNW,298,4.4,6.9,67,0.00,OVC,SKC,0.00,WeatherDisplay:10.37,2013-10-21 15:25:00,
2013-10-21 10:30:00,37.6,27.6,29.76,WNW,298,3.0,5.8,67,0.00,OVC,SKC,0.00,WeatherDisplay:10.37,2013-10-21 15:30:00,
2013-10-21 10:35:00,38.0,28.0,29.77,WNW,298,2.3,3.5,67,0.00,OVC,SKC,0.00,WeatherDisplay:10.37,2013-10-21 15:35:00,
2013-10-21 10:40:00,38.1,28.1,29.76,WNW,298,3.2,6.0,67,0.00,OVC,SKC,0.00,WeatherDisplay:10.37,2013-10-21 15:40:00,
2013-10-21 10:45:00,38.1,28.1,29.76,WNW,298,3.2,3.5,67,0.00,OVC,SKC,0.00,WeatherDisplay:10.37,2013-10-21 15:45:00,
2013-10-21 10:50:00,38.1,28.1,29.76,WNW,298,3.2,3.5,67,0.00,OVC,SKC,0.00,WeatherDisplay:10.37,2013-10-21 15:50:00,
2013-10-21 10:55:00,38.1,28.1,29.76,WNW,298,3.2,3.5,67,0.00,OVC,SKC,0.00,WeatherDisplay:10.37,2013-10-21 15:55:00,
2013-10-21 11:00:00,38.1,28.1,29.76,WNW,298,3.2,3.5,67,0.00,OVC,SKC,0.00,WeatherDisplay:10.37,2013-10-21 16:00:00,
2013-10-21 11:05:00,38.1,28.1,29.76,WNW,298,3.2,3.5,67,0.00,OVC,SKC,0.00,WeatherDisplay:10.37,2013-10-21 16:05:00,
2013-10-21 11:10:00,38.1,28.1,29.76,WNW,298,3.2,3.5,67,0.00,OVC,SKC,0.00,WeatherDisplay:10.37,2013-10-21 16:10:00,
2013-10-21 11:15:00,37.7,27.0,29.76,WNW,292,4.0,6.0,65,0.00,OVC,SKC,0.00,WeatherDisplay:10.37,2013-10-21 16:15:00,
2013-10-21 11:20:00,37.5,26.8,29.76,WNW,292,2.9,5.8,65,0.00,OVC,SKC,0.00,WeatherDisplay:10.37,2013-10-21 16:20:00,
2013-10-21 11:25:00,37.4,27.1,29.76,WNW,292,4.8,7.0,66,0.00,OVC,SKC,0.00,WeatherDisplay:10.37,2013-10-21 16:25:00,
2013-10-21 11:30:00,37.7,27.7,29.76,WNW,292,3.7,5.0,67,0.00,OVC,SKC,0.00,WeatherDisplay:10.37,2013-10-21 16:30:00,
2013-10-21 11:35:00,37.5,27.2,29.76,WNW,292,3.8,8.1,66,0.00,OVC,SKC,0.00,WeatherDisplay:10.37,2013-10-21 16:35:00,
2013-10-21 11:40:00,37.4,27.8,29.76,WNW,292,1.9,4.0,68,0.00,OVC,SKC,0.00,WeatherDisplay:10.37,2013-10-21 16:40:00,
2013-10-21 11:45:00,37.5,27.2,29.76,WNW,292,4.3,4.3,66,0.00,OVC,SKC,0.00,WeatherDisplay:10.37,2013-10-21 16:45:00,
2013-10-21 11:50:00,37.5,27.2,29.76,WNW,292,4.3,4.3,66,0.00,OVC,SKC,0.00,WeatherDisplay:10.37,2013-10-21 16:50:00,
2013-10-21 11:55:00,37.4,27.4,29.76,WNW,292,4.7,8.1,67,0.00,OVC,SKC,0.00,WeatherDisplay:10.37,2013-10-21 16:55:00,
2013-10-21 12:00:00,37.5,27.2,29.76,WNW,291,5.5,6.9,66,0.00,OVC,SKC,0.00,WeatherDisplay:10.37,2013-10-21 17:00:00,
2013-10-21 12:05:00,37.1,26.4,29.76,WNW,290,6.2,10.4,65,0.00,OVC,SKC,0.00,WeatherDisplay:10.37,2013-10-21 17:05:00,
2013-10-21 12:10:00,37.1,27.2,29.76,WNW,290,4.0,6.9,67,0.00,OVC,SKC,0.00,WeatherDisplay:10.37,2013-10-21 17:10:00,
2013-10-21 12:15:00,37.6,28.3,29.76,WNW,290,4.3,6.0,69,0.00,OVC,SKC,0.00,WeatherDisplay:10.37,2013-10-21 17:15:00,
2013-10-21 12:20:00,38.1,28.1,29.76,WNW,290,4.4,6.0,67,0.00,OVC,SKC,0.00,WeatherDisplay:10.37,2013-10-21 17:20:00,
2013-10-21 12:25:00,37.5,27.2,29.76,WNW,292,4.3,4.3,66,0.00,OVC,SKC,0.00,WeatherDisplay:10.37,2013-10-21 17:25:00,
2013-10-21 12:30:00,37.5,27.2,29.76,WNW,292,4.3,4.3,66,0.00,OVC,SKC,0.00,WeatherDisplay:10.37,2013-10-21 17:30:00,
2013-10-21 12:35:00,37.5,27.2,29.76,WNW,292,4.3,4.3,66,0.00,OVC,SKC,0.00,WeatherDisplay:10.37,2013-10-21 17:35:00,
2013-10-21 12:40:00,38.4,28.0,29.75,WNW,289,4.2,6.0,66,0.00,OVC,SKC,0.00,WeatherDisplay:10.37,2013-10-21 17:40:00,
2013-10-21 12:45:00,37.5,27.2,29.76,WNW,292,4.3,4.3,66,0.00,OVC,SKC,0.00,WeatherDisplay:10.37,2013-10-21 17:45:00,
2013-10-21 12:50:00,38.2,27.8,29.75,WNW,289,5.0,8.1,66,0.00,OVC,SKC,0.00,WeatherDisplay:10.37,2013-10-21 17:50:00,
2013-10-21 12:55:00,38.1,27.7,29.75,WNW,289,3.8,3.8,66,0.00,OVC,SKC,0.00,WeatherDisplay:10.37,2013-10-21 17:55:00,
2013-10-21 13:00:00,38.1,27.7,29.75,WNW,289,3.8,3.8,66,0.00,OVC,SKC,0.00,WeatherDisplay:10.37,2013-10-21 18:00:00,
2013-10-21 13:05:00,38.8,27.7,29.74,WNW,289,5.9,8.1,64,0.00,OVC,SKC,0.00,WeatherDisplay:10.37,2013-10-21 18:05:00,
2013-10-21 13:10:00,38.4,28.0,29.75,WNW,289,4.5,7.0,66,0.00,OVC,SKC,0.00,WeatherDisplay:10.37,2013-10-21 18:10:00,
2013-10-21 13:15:00,38.1,27.7,29.75,WNW,289,3.8,3.8,66,0.00,OVC,SKC,0.00,WeatherDisplay:10.37,2013-10-21 18:15:00,
2013-10-21 13:20:00,39.0,29.0,29.74,WNW,289,3.1,5.8,67,0.00,OVC,SKC,0.00,WeatherDisplay:10.37,2013-10-21 18:20:00,
2013-10-21 13:25:00,39.4,27.1,29.74,WNW,289,5.0,8.1,61,0.00,OVC,SKC,0.00,WeatherDisplay:10.37,2013-10-21 18:25:00,
2013-10-21 13:30:00,39.3,27.0,29.74,WNW,287,4.9,9.2,61,0.00,OVC,SKC,0.00,WeatherDisplay:10.37,2013-10-21 18:30:00,
2013-10-21 13:35:00,39.2,26.9,29.73,WNW,287,6.3,9.2,61,0.00,OVC,SKC,0.00,WeatherDisplay:10.37,2013-10-21 18:35:00,
2013-10-21 13:40:00,39.2,26.9,29.73,WNW,286,6.3,8.1,61,0.00,OVC,SKC,0.00,WeatherDisplay:10.37,2013-10-21 18:40:00,
2013-10-21 13:45:00,38.1,27.7,29.75,WNW,289,3.8,3.8,66,0.00,OVC,SKC,0.00,WeatherDisplay:10.37,2013-10-21 18:45:00,
2013-10-21 13:50:00,38.1,27.7,29.75,WNW,289,3.8,3.8,66,0.00,OVC,SKC,0.00,WeatherDisplay:10.37,2013-10-21 18:50:00,
2013-10-21 13:55:00,38.1,27.7,29.75,WNW,289,3.8,3.8,66,0.00,OVC,SKC,0.00,WeatherDisplay:10.37,2013-10-21 18:55:00,
2013-10-21 14:00:00,38.1,27.7,29.75,WNW,289,3.8,3.8,66,0.00,OVC,SKC,0.00,WeatherDisplay:10.37,2013-10-21 19:00:00,
2013-10-21 14:05:00,38.1,27.7,29.75,WNW,289,3.8,3.8,66,0.00,OVC,SKC,0.00,WeatherDisplay:10.37,2013-10-21 19:05:00,
2013-10-21 14:10:00,38.1,27.7,29.75,WNW,289,3.8,3.8,66,0.00,OVC,SKC,0.00,WeatherDisplay:10.37,2013-10-21 19:10:00,
2013-10-21 14:15:00,38.1,27.7,29.75,WNW,289,3.8,3.8,66,0.00,OVC,SKC,0.00,WeatherDisplay:10.37,2013-10-21 19:15:00,
2013-10-21 14:20:00,40.7,27.5,29.72,WNW,286,4.7,8.1,59,0.00,OVC,SKC,0.00,WeatherDisplay:10.37,2013-10-21 19:20:00,
2013-10-21 14:25:00,41.5,27.0,29.72,WNW,286,6.5,9.2,56,0.00,OVC,SKC,0.00,WeatherDisplay:10.37,2013-10-21 19:25:00,
2013-10-21 14:30:00,38.1,27.7,29.75,WNW,289,3.8,3.8,66,0.00,OVC,SKC,0.00,WeatherDisplay:10.37,2013-10-21 19:30:00,
2013-10-21 14:35:00,40.7,27.1,29.72,WNW,286,3.9,6.0,58,0.00,OVC,SKC,0.00,WeatherDisplay:10.37,2013-10-21 19:35:00,
2013-10-21 14:40:00,40.4,26.8,29.72,WNW,285,6.0,10.4,58,0.00,OVC,SKC,0.00,WeatherDisplay:10.37,2013-10-21 19:40:00,
2013-10-21 14:45:00,40.6,27.8,29.72,WNW,284,5.5,8.1,60,0.00,OVC,SKC,0.00,WeatherDisplay:10.37,2013-10-21 19:45:00,
2013-10-21 14:50:00,40.5,27.3,29.72,WNW,284,3.0,4.6,59,0.00,OVC,SKC,0.00,WeatherDisplay:10.37,2013-10-21 19:50:00,
2013-10-21 14:55:00,40.4,28.0,29.72,WNW,284,3.6,5.8,61,0.00,OVC,SKC,0.00,WeatherDisplay:10.37,2013-10-21 19:55:00,
2013-10-21 15:00:00,38.1,27.7,29.75,WNW,289,3.8,3.8,66,0.00,OVC,SKC,0.00,WeatherDisplay:10.37,2013-10-21 20:00:00,
2013-10-21 15:05:00,40.5,27.3,29.72,WNW,284,4.7,10.4,59,0.00,BKN,SKC,0.00,WeatherDisplay:10.37,2013-10-21 20:05:00,
2013-10-21 15:10:00,38.1,27.7,29.75,WNW,289,3.8,3.8,66,0.00,BKN,SKC,0.00,WeatherDisplay:10.37,2013-10-21 20:10:00,
2013-10-21 15:15:00,38.1,27.7,29.75,WNW,289,3.8,3.8,66,0.00,BKN,SKC,0.00,WeatherDisplay:10.37,2013-10-21 20:15:00,
2013-10-21 15:20:00,38.1,27.7,29.75,WNW,289,3.8,3.8,66,0.00,BKN,SKC,0.00,WeatherDisplay:10.37,2013-10-21 20:20:00,
2013-10-21 15:25:00,40.2,27.0,29.72,WNW,285,4.3,6.9,59,0.00,BKN,SKC,0.00,WeatherDisplay:10.37,2013-10-21 20:25:00,
2013-10-21 15:30:00,40.2,27.0,29.72,WNW,285,5.2,8.1,59,0.00,BKN,SKC,0.00,WeatherDisplay:10.37,2013-10-21 20:30:00,
2013-10-21 15:35:00,38.1,27.7,29.75,WNW,289,3.8,3.8,66,0.00,BKN,SKC,0.00,WeatherDisplay:10.37,2013-10-21 20:35:00,
2013-10-21 15:40:00,38.1,27.7,29.75,WNW,289,3.8,3.8,66,0.00,BKN,SKC,0.00,WeatherDisplay:10.37,2013-10-21 20:40:00,
2013-10-21 15:45:00,42.1,27.9,29.72,WNW,288,3.4,5.8,57,0.00,BKN,SKC,0.00,WeatherDisplay:10.37,2013-10-21 20:45:00,
2013-10-21 15:50:00,41.9,27.8,29.72,WNW,288,4.1,6.0,57,0.00,BKN,SKC,0.00,WeatherDisplay:10.37,2013-10-21 20:50:00,
2013-10-21 15:55:00,41.8,27.7,29.72,WNW,288,4.3,6.0,57,0.00,BKN,SKC,0.00,WeatherDisplay:10.37,2013-10-21 20:55:00,
2013-10-21 16:00:00,42.0,27.9,29.72,WNW,288,4.7,5.8,57,0.00,BKN,SKC,0.00,WeatherDisplay:10.37,2013-10-21 21:00:00,
2013-10-21 16:05:00,42.0,27.9,29.72,WNW,288,4.7,5.8,57,0.00,SCT,SKC,0.00,WeatherDisplay:10.37,2013-10-21 21:05:00,
2013-10-21 16:10:00,42.7,27.2,29.73,WNW,290,4.5,8.1,54,0.00,SCT,SKC,0.00,WeatherDisplay:10.37,2013-10-21 21:10:00,
2013-10-21 16:15:00,42.2,27.2,29.73,WNW,290,3.3,5.8,55,0.00,SCT,SKC,0.00,WeatherDisplay:10.37,2013-10-21 21:15:00,
2013-10-21 16:20:00,41.7,28.0,29.73,WNW,288,3.1,5.0,58,0.00,SCT,SKC,0.00,WeatherDisplay:10.37,2013-10-21 21:20:00,
2013-10-21 16:25:00,41.3,27.2,29.73,WNW,290,2.8,5.8,57,0.00,SCT,SKC,0.00,WeatherDisplay:10.37,2013-10-21 21:25:00,
2013-10-21 16:30:00,41.3,27.6,29.73,WNW,290,3.1,6.0,58,0.00,SCT,SKC,0.00,WeatherDisplay:10.37,2013-10-21 21:30:00,
2013-10-21 16:35:00,41.3,27.6,29.73,West,277,4.0,6.0,58,0.00,SCT,SKC,0.00,WeatherDisplay:10.37,2013-10-21 21:35:00,
2013-10-21 16:40:00,42.2,27.2,29.73,WNW,290,3.3,3.5,55,0.00,SCT,SKC,0.00,WeatherDisplay:10.37,2013-10-21 21:40:00,
2013-10-21 16:45:00,42.2,27.2,29.73,WNW,290,3.3,3.5,55,0.00,SCT,SKC,0.00,WeatherDisplay:10.37,2013-10-21 21:45:00,
2013-10-21 16:50:00,42.2,27.2,29.73,WNW,290,3.3,3.5,55,0.00,SCT,SKC,0.00,WeatherDisplay:10.37,2013-10-21 21:50:00,
2013-10-21 16:55:00,40.6,26.1,29.73,WNW,286,4.9,10.4,56,0.00,SCT,SKC,0.00,WeatherDisplay:10.37,2013-10-21 21:55:00,
2013-10-21 17:00:00,42.2,27.2,29.73,WNW,290,3.3,3.5,55,0.00,SCT,SKC,0.00,WeatherDisplay:10.37,2013-10-21 22:00:00,
2013-10-21 17:05:00,42.2,27.2,29.73,WNW,290,3.3,3.5,55,0.00,SCT,SKC,0.00,WeatherDisplay:10.37,2013-10-21 22:05:00,
2013-10-21 17:10:00,39.9,26.7,29.74,WNW,286,2.9,5.0,59,0.00,SCT,SKC,0.00,WeatherDisplay:10.37,2013-10-21 22:10:00,
2013-10-21 17:15:00,42.2,27.2,29.73,WNW,290,3.3,3.5,55,0.00,SCT,SKC,0.00,WeatherDisplay:10.37,2013-10-21 22:15:00,
2013-10-21 17:21:00,39.5,26.8,29.74,WNW,286,2.0,5.0,60,0.00,CLR,SKC,0.00,WeatherDisplay:10.37,2013-10-21 22:21:00,
2013-10-21 17:26:00,39.5,26.8,29.73,WNW,286,1.8,3.5,60,0.00,CLR,SKC,0.00,WeatherDisplay:10.37,2013-10-21 22:26:00,
2013-10-21 17:31:00,42.2,27.2,29.73,WNW,290,3.3,3.5,55,0.00,CLR,SKC,0.00,WeatherDisplay:10.37,2013-10-21 22:31:00,
2013-10-21 17:36:00,42.2,27.2,29.73,WNW,290,3.3,3.5,55,0.00,CLR,SKC,0.00,WeatherDisplay:10.37,2013-10-21 22:36:00,
2013-10-21 17:41:00,38.9,26.6,29.74,WNW,286,1.9,4.0,61,0.00,CLR,SKC,0.00,WeatherDisplay:10.37,2013-10-21 22:41:00,
2013-10-21 17:46:00,38.7,26.4,29.74,WNW,285,1.9,3.5,61,0.00,CLR,SKC,0.00,WeatherDisplay:10.37,2013-10-21 22:46:00,
2013-10-21 17:51:00,38.5,26.6,29.74,WNW,286,0.5,3.5,62,0.00,CLR,SKC,0.00,WeatherDisplay:10.37,2013-10-21 22:51:00,
2013-10-21 17:56:00,38.3,26.4,29.74,WNW,286,1.5,3.5,62,0.00,CLR,SKC,0.00,WeatherDisplay:10.37,2013-10-21 22:56:00,
2013-10-21 18:01:00,38.1,26.6,29.74,WNW,285,1.7,3.5,63,0.00,CLR,SKC,0.00,WeatherDisplay:10.37,2013-10-21 23:01:00,
2013-10-21 18:07:00,42.2,27.2,29.73,WNW,290,3.3,3.5,55,0.00,CLR,SKC,0.00,WeatherDisplay:10.37,2013-10-21 23:07:00,
2013-10-21 18:12:00,42.2,27.2,29.73,WNW,290,3.3,3.5,55,0.00,CLR,SKC,0.00,WeatherDisplay:10.37,2013-10-21 23:12:00,
2013-10-21 18:17:00,42.2,27.2,29.73,WNW,290,3.3,3.5,55,0.00,CLR,SKC,0.00,WeatherDisplay:10.37,2013-10-21 23:17:00,
2013-10-21 18:22:00,36.8,26.5,29.74,WNW,285,0.3,2.3,66,0.00,CLR,SKC,0.00,WeatherDisplay:10.37,2013-10-21 23:22:00,
2013-10-21 18:27:00,36.5,26.2,29.75,WNW,285,0.8,3.5,66,0.00,CLR,SKC,0.00,WeatherDisplay:10.37,2013-10-21 23:27:00,
2013-10-21 18:32:00,36.1,26.2,29.75,WNW,285,0.0,0.0,67,0.00,CLR,SKC,0.00,WeatherDisplay:10.37,2013-10-21 23:32:00,
2013-10-21 18:37:00,36.1,26.2,29.75,WNW,286,0.0,0.0,67,0.00,CLR,SKC,0.00,WeatherDisplay:10.37,2013-10-21 23:37:00,
2013-10-21 18:42:00,36.1,26.2,29.75,WNW,286,0.0,0.0,67,0.00,CLR,SKC,0.00,WeatherDisplay:10.37,2013-10-21 23:42:00,
2013-10-21 18:47:00,36.1,26.2,29.75,WNW,286,0.0,0.0,67,0.00,CLR,SKC,0.00,WeatherDisplay:10.37,2013-10-21 23:47:00,
2013-10-21 18:52:00,34.1,25.0,29.75,WNW,286,0.0,0.0,69,0.00,CLR,SKC,0.00,WeatherDisplay:10.37,2013-10-21 23:52:00,
2013-10-21 18:57:00,34.1,25.0,29.75,WNW,286,0.0,0.0,69,0.00,CLR,SKC,0.00,WeatherDisplay:10.37,2013-10-21 23:57:00,
2013-10-21 19:02:00,33.3,25.2,29.75,WNW,285,0.0,0.0,72,0.00,CLR,SKC,0.00,WeatherDisplay:10.37,2013-10-22 00:02:00,
2013-10-21 19:07:00,33.1,25.1,29.75,WNW,286,0.0,0.0,72,0.00,CLR,SKC,0.00,WeatherDisplay:10.37,2013-10-22 00:07:00,
2013-10-21 19:12:00,32.7,25.0,29.75,WNW,285,0.0,0.0,73,0.00,CLR,SKC,0.00,WeatherDisplay:10.37,2013-10-22 00:12:00,
2013-10-21 19:17:00,34.1,25.0,29.75,WNW,286,0.0,0.0,69,0.00,CLR,SKC,0.00,WeatherDisplay:10.37,2013-10-22 00:17:00,
2013-10-21 19:22:00,34.1,25.0,29.75,WNW,286,0.0,0.0,69,0.00,CLR,SKC,0.00,WeatherDisplay:10.37,2013-10-22 00:22:00,
2013-10-21 19:27:00,31.7,24.7,29.75,WNW,285,0.0,0.0,75,0.00,CLR,SKC,0.00,WeatherDisplay:10.37,2013-10-22 00:27:00,
2013-10-21 19:32:00,34.1,25.0,29.75,WNW,286,0.0,0.0,69,0.00,CLR,SKC,0.00,WeatherDisplay:10.37,2013-10-22 00:32:00,
2013-10-21 19:37:00,34.1,25.0,29.75,WNW,286,0.0,0.0,69,0.00,CLR,SKC,0.00,WeatherDisplay:10.37,2013-10-22 00:37:00,
2013-10-21 19:42:00,31.4,24.4,29.75,WNW,285,0.0,0.0,75,0.00,CLR,SKC,0.00,WeatherDisplay:10.37,2013-10-22 00:42:00,
2013-10-21 19:47:00,34.1,25.0,29.75,WNW,286,0.0,0.0,69,0.00,CLR,SKC,0.00,WeatherDisplay:10.37,2013-10-22 00:47:00,
2013-10-21 19:52:00,34.1,25.0,29.75,WNW,286,0.0,0.0,69,0.00,CLR,SKC,0.00,WeatherDisplay:10.37,2013-10-22 00:52:00,
2013-10-21 19:57:00,34.1,25.0,29.75,WNW,286,0.0,0.0,69,0.00,CLR,SKC,0.00,WeatherDisplay:10.37,2013-10-22 00:57:00,
2013-10-21 20:02:00,30.8,24.1,29.75,WNW,285,0.0,0.0,76,0.00,CLR,SKC,0.00,WeatherDisplay:10.37,2013-10-22 01:02:00,
2013-10-21 20:07:00,30.5,24.1,29.75,WNW,285,0.0,0.0,77,0.00,CLR,SKC,0.00,WeatherDisplay:10.37,2013-10-22 01:07:00,
2013-10-21 20:12:00,34.1,25.0,29.75,WNW,286,0.0,0.0,69,0.00,CLR,SKC,0.00,WeatherDisplay:10.37,2013-10-22 01:12:00,
2013-10-21 20:17:00,34.1,25.0,29.75,WNW,286,0.0,0.0,69,0.00,CLR,SKC,0.00,WeatherDisplay:10.37,2013-10-22 01:17:00,
2013-10-21 20:22:00,29.8,23.8,29.75,WNW,285,0.0,0.0,78,0.00,CLR,SKC,0.00,WeatherDisplay:10.37,2013-10-22 01:22:00,
2013-10-21 20:27:00,29.7,23.7,29.75,WNW,286,0.0,0.0,78,0.00,CLR,SKC,0.00,WeatherDisplay:10.37,2013-10-22 01:27:00,
2013-10-21 20:32:00,34.1,25.0,29.75,WNW,286,0.0,0.0,69,0.00,CLR,SKC,0.00,WeatherDisplay:10.37,2013-10-22 01:32:00,
2013-10-21 20:37:00,29.8,23.8,29.75,WNW,286,0.0,0.0,78,0.00,CLR,SKC,0.00,WeatherDisplay:10.37,2013-10-22 01:37:00,
2013-10-21 20:42:00,29.9,23.9,29.75,WNW,285,0.0,0.0,78,0.00,CLR,SKC,0.00,WeatherDisplay:10.37,2013-10-22 01:42:00,
2013-10-21 20:47:00,34.1,25.0,29.75,WNW,286,0.0,0.0,69,0.00,CLR,SKC,0.00,WeatherDisplay:10.37,2013-10-22 01:47:00,
2013-10-21 20:52:00,30.0,24.0,29.74,WNW,285,0.0,0.0,78,0.00,CLR,SKC,0.00,WeatherDisplay:10.37,2013-10-22 01:52:00,
2013-10-21 20:57:00,34.1,25.0,29.75,WNW,286,0.0,0.0,69,0.00,CLR,SKC,0.00,WeatherDisplay:10.37,2013-10-22 01:57:00,
2013-10-21 21:02:00,34.1,25.0,29.75,WNW,286,0.0,0.0,69,0.00,CLR,SKC,0.00,WeatherDisplay:10.37,2013-10-22 02:02:00,
2013-10-21 21:03:00,34.1,25.0,29.75,WNW,286,0.0,0.0,69,0.00,CLR,SKC,0.00,WeatherDisplay:10.37,2013-10-22 02:03:00,
2013-10-21 21:08:00,34.1,25.0,29.75,WNW,286,0.0,0.0,69,0.00,CLR,SKC,0.00,WeatherDisplay:10.37,2013-10-22 02:08:00,
2013-10-21 21:13:00,29.6,23.9,29.75,WNW,285,0.0,0.0,79,0.00,CLR,SKC,0.00,WeatherDisplay:10.37,2013-10-22 02:13:00,
2013-10-21 21:18:00,34.1,25.0,29.75,WNW,286,0.0,0.0,69,0.00,CLR,SKC,0.00,WeatherDisplay:10.37,2013-10-22 02:18:00,
2013-10-21 21:23:00,34.1,25.0,29.75,WNW,286,0.0,0.0,69,0.00,CLR,SKC,0.00,WeatherDisplay:10.37,2013-10-22 02:23:00,
2013-10-21 21:28:00,28.8,23.7,29.75,WNW,285,0.0,0.0,81,0.00,CLR,SKC,0.00,WeatherDisplay:10.37,2013-10-22 02:28:00,
2013-10-21 21:33:00,34.1,25.0,29.75,WNW,286,0.0,0.0,69,0.00,CLR,SKC,0.00,WeatherDisplay:10.37,2013-10-22 02:33:00,
2013-10-21 21:38:00,28.5,23.4,29.75,WNW,285,0.0,0.0,81,0.00,CLR,SKC,0.00,WeatherDisplay:10.37,2013-10-22 02:38:00,
2013-10-21 21:43:00,28.4,23.3,29.75,WNW,285,0.0,0.0,81,0.00,CLR,SKC,0.00,WeatherDisplay:10.37,2013-10-22 02:43:00,
2013-10-21 21:48:00,28.4,23.3,29.75,WNW,285,0.0,0.0,81,0.00,CLR,SKC,0.00,WeatherDisplay:10.37,2013-10-22 02:48:00,
2013-10-21 21:53:00,28.6,23.5,29.75,WNW,285,0.0,0.0,81,0.00,CLR,SKC,0.00,WeatherDisplay:10.37,2013-10-22 02:53:00,
2013-10-21 21:58:00,28.7,23.6,29.75,WNW,285,0.0,0.0,81,0.00,CLR,SKC,0.00,WeatherDisplay:10.37,2013-10-22 02:58:00,
2013-10-21 22:03:00,28.9,23.5,29.75,WNW,285,0.0,0.0,80,0.00,CLR,SKC,0.00,WeatherDisplay:10.37,2013-10-22 03:03:00,
2013-10-21 22:08:00,28.9,23.5,29.75,WNW,285,0.0,0.0,80,0.00,CLR,SKC,0.00,WeatherDisplay:10.37,2013-10-22 03:08:00,
2013-10-21 22:13:00,28.8,23.4,29.75,WNW,286,0.0,0.0,80,0.00,CLR,SKC,0.00,WeatherDisplay:10.37,2013-10-22 03:13:00,
2013-10-21 22:18:00,28.9,23.5,29.75,WNW,285,0.0,0.0,80,0.00,CLR,SKC,0.00,WeatherDisplay:10.37,2013-10-22 03:18:00,
2013-10-21 22:23:00,28.6,23.5,29.75,WNW,285,0.0,0.0,81,0.00,CLR,SKC,0.00,WeatherDisplay:10.37,2013-10-22 03:23:00,
2013-10-21 22:28:00,29.0,23.3,29.75,WNW,285,0.0,0.0,79,0.00,CLR,SKC,0.00,WeatherDisplay:10.37,2013-10-22 03:28:00,
2013-10-21 22:33:00,28.6,23.5,29.75,WNW,285,0.0,0.0,81,0.00,CLR,SKC,0.00,WeatherDisplay:10.37,2013-10-22 03:33:00,
2013-10-21 22:38:00,29.1,23.4,29.75,WNW,285,0.0,0.0,79,0.00,CLR,SKC,0.00,WeatherDisplay:10.37,2013-10-22 03:38:00,
2013-10-21 22:43:00,28.6,23.5,29.75,WNW,285,0.0,0.0,81,0.00,CLR,SKC,0.00,WeatherDisplay:10.37,2013-10-22 03:43:00,
2013-10-21 22:48:00,28.6,23.5,29.75,WNW,285,0.0,0.0,81,0.00,CLR,SKC,0.00,WeatherDisplay:10.37,2013-10-22 03:48:00,
2013-10-21 22:53:00,28.8,23.1,29.75,WNW,285,0.0,0.0,79,0.00,CLR,SKC,0.00,WeatherDisplay:10.37,2013-10-22 03:53:00,
2013-10-21 22:58:00,28.7,23.3,29.75,WNW,285,0.0,0.0,80,0.00,CLR,SKC,0.00,WeatherDisplay:10.37,2013-10-22 03:58:00,
2013-10-21 23:01:00,28.6,23.2,29.75,WNW,285,0.0,0.0,80,0.00,CLR,SKC,0.00,WeatherDisplay:10.37,2013-10-22 04:01:00,
2013-10-21 23:02:00,28.6,23.2,29.76,WNW,285,0.0,0.0,80,0.00,CLR,SKC,0.00,WeatherDisplay:10.37,2013-10-22 04:02:00,
2013-10-21 23:03:00,28.6,23.2,29.75,WNW,285,0.0,0.0,80,0.00,CLR,SKC,0.00,WeatherDisplay:10.37,2013-10-22 04:03:00,
2013-10-21 23:05:00,28.6,23.5,29.75,WNW,285,0.0,0.0,81,0.00,CLR,SKC,0.00,WeatherDisplay:10.37,2013-10-22 04:05:00,
2013-10-21 23:06:00,28.6,23.5,29.75,WNW,285,0.0,0.0,81,0.00,CLR,SKC,0.00,WeatherDisplay:10.37,2013-10-22 04:06:00,
2013-10-21 23:11:00,28.5,23.1,29.76,WNW,285,0.0,0.0,80,0.00,CLR,SKC,0.00,WeatherDisplay:10.37,2013-10-22 04:11:00,
2013-10-21 23:16:00,28.3,23.2,29.76,WNW,285,0.0,0.0,81,0.00,CLR,SKC,0.00,WeatherDisplay:10.37,2013-10-22 04:16:00,
2013-10-21 23:21:00,28.2,23.1,29.76,WNW,285,0.0,0.0,81,0.00,CLR,SKC,0.00,WeatherDisplay:10.37,2013-10-22 04:21:00,
2013-10-21 23:23:00,28.1,23.0,29.76,WNW,285,0.0,1.2,81,0.00,CLR,SKC,0.00,WeatherDisplay:10.37,2013-10-22 04:23:00,
2013-10-21 23:28:00,27.9,22.8,29.76,WNW,285,0.0,1.2,81,0.00,CLR,SKC,0.00,WeatherDisplay:10.37,2013-10-22 04:28:00,
2013-10-21 23:33:00,27.5,22.7,29.76,WNW,285,0.0,0.0,82,0.00,CLR,SKC,0.00,WeatherDisplay:10.37,2013-10-22 04:33:00,
2013-10-21 23:38:00,27.3,22.5,29.75,WNW,285,0.0,0.0,82,0.00,CLR,SKC,0.00,WeatherDisplay:10.37,2013-10-22 04:38:00,
2013-10-21 23:43:00,28.6,23.5,29.75,WNW,285,0.0,0.0,81,0.00,SCT,SKC,0.00,WeatherDisplay:10.37,2013-10-22 04:43:00,
2013-10-21 23:48:00,27.4,22.9,29.75,WNW,285,0.0,0.0,83,0.00,SCT,SKC,0.00,WeatherDisplay:10.37,2013-10-22 04:48:00,
2013-10-21 23:53:00,27.5,23.0,29.76,WNW,285,0.0,0.0,83,0.00,SCT,SKC,0.00,WeatherDisplay:10.37,2013-10-22 04:53:00,
2013-10-21 23:58:00,27.4,22.9,29.76,WNW,285,0.0,1.2,83,0.00,SCT,SKC,0.00,WeatherDisplay:10.37,2013-10-22 04:58:00,